Time;durP1;ratioP1;P1;durP2;ratioP2;P2;SDS_P1;SDS_P2;PMS_P1;PMS_P2;Temp;Humidity;BMP_temperature;BMP_pressure;BME280_temperature;BME280_humidity;BME280_pressure;Samples;Min_cycle;Max_cycle;Signal;HPM_P1;HPM_P2
2021/07/28 00:00:37;;;;;;;23.40;10.85;;;;;;;22.12;91.64;97673.31;5131236;27;20031;-77
2021/07/28 00:03:03;;;;;;;19.00;10.45;;;;;;;22.18;91.36;97679.13;5131243;27;20142;-77
2021/07/28 00:05:29;;;;;;;17.85;9.68;;;;;;;22.10;90.96;97671.78;5130854;27;20018;-76
2021/07/28 00:07:54;;;;;;;23.35;10.77;;;;;;;22.15;91.06;97675.69;5130523;27;20398;-77
2021/07/28 00:10:20;;;;;;;33.40;10.30;;;;;;;22.13;91.50;97677.75;5130552;27;20034;-77
2021/07/28 00:12:45;;;;;;;14.68;10.18;;;;;;;22.09;91.49;97676.34;5132441;27;20019;-77
2021/07/28 00:15:11;;;;;;;20.60;11.27;;;;;;;22.07;92.37;97678.41;5130412;27;20127;-77
2021/07/28 00:17:43;;;;;;;15.85;10.32;;;;;;;22.08;91.47;97679.25;5132341;27;20423;-77
2021/07/28 00:20:15;;;;;;;19.65;10.35;;;;;;;22.05;91.46;97675.00;5111916;28;20027;-77
2021/07/28 00:25:25;;;;;;;23.73;11.13;;;;;;;21.89;92.53;97669.47;5119257;28;20038;-77
2021/07/28 00:27:50;;;;;;;25.48;11.13;;;;;;;21.93;92.77;97670.00;5130848;28;20054;-77
2021/07/28 00:30:16;;;;;;;20.27;10.73;;;;;;;21.88;93.62;97673.19;5131542;27;20545;-77
2021/07/28 00:32:42;;;;;;;19.98;10.57;;;;;;;21.78;95.64;97666.13;5130481;28;20027;-77
2021/07/28 00:35:08;;;;;;;16.25;10.05;;;;;;;21.80;93.98;97667.69;5113522;28;20414;-77
2021/07/28 00:37:34;;;;;;;17.70;10.10;;;;;;;21.78;93.74;97661.53;5131647;27;20031;-77
2021/07/28 00:39:59;;;;;;;16.80;10.70;;;;;;;21.60;94.26;97637.09;5132145;27;20031;-77
2021/07/28 00:42:25;;;;;;;23.35;10.75;;;;;;;21.71;95.17;97655.03;5130484;28;20023;-76
2021/07/28 00:44:51;;;;;;;19.58;10.80;;;;;;;21.56;96.59;97651.19;5130821;28;20386;-78
2021/07/28 00:47:17;;;;;;;18.38;11.05;;;;;;;21.52;96.13;97639.78;5130374;28;20532;-78
2021/07/28 00:49:42;;;;;;;19.83;10.90;;;;;;;21.58;96.91;97657.34;5132450;27;20443;-78
2021/07/28 00:52:08;;;;;;;17.60;10.35;;;;;;;21.57;96.50;97650.16;5134659;27;20118;-77
2021/07/28 00:54:34;;;;;;;20.02;10.77;;;;;;;21.60;96.94;97652.56;5135158;27;20025;-78
2021/07/28 00:57:00;;;;;;;42.05;10.90;;;;;;;21.59;97.08;97632.66;5134591;27;20034;-78
2021/07/28 00:59:25;;;;;;;24.90;11.25;;;;;;;21.61;97.44;97644.25;5134589;27;20027;-78
2021/07/28 01:01:53;;;;;;;21.70;10.98;;;;;;;21.64;97.68;97653.97;5134682;27;20084;-77
2021/07/28 01:04:20;;;;;;;49.88;11.70;;;;;;;21.60;97.89;97649.84;5135460;27;20027;-78
2021/07/28 01:06:45;;;;;;;25.17;11.40;;;;;;;21.63;98.79;97657.69;5135833;27;20109;-78
2021/07/28 01:09:11;;;;;;;20.52;10.38;;;;;;;21.57;98.38;97651.03;5135637;27;20450;-76
2021/07/28 01:11:36;;;;;;;23.35;10.95;;;;;;;21.58;98.83;97649.16;5135357;27;20106;-78
2021/07/28 01:14:04;;;;;;;18.38;11.43;;;;;;;21.43;98.57;97645.31;5134212;27;20055;-78
2021/07/28 01:16:34;;;;;;;17.17;11.32;;;;;;;21.51;98.68;97661.69;5133971;27;20030;-76
2021/07/28 01:19:01;;;;;;;18.92;10.82;;;;;;;21.47;97.87;97646.72;5134118;27;20065;-76
2021/07/28 01:21:27;;;;;;;15.82;10.35;;;;;;;21.37;95.13;97640.53;5133893;27;20015;-75
2021/07/28 01:23:54;;;;;;;17.77;10.30;;;;;;;21.36;94.78;97644.25;5134109;27;20087;-77
2021/07/28 01:26:20;;;;;;;17.35;10.98;;;;;;;21.27;93.06;97645.19;5133872;27;20047;-73
2021/07/28 01:28:45;;;;;;;20.77;11.25;;;;;;;21.25;93.30;97645.38;5116742;27;20031;-76
2021/07/28 01:31:15;;;;;;;20.50;11.15;;;;;;;21.19;93.85;97647.88;5135019;27;20098;-75
2021/07/28 01:33:43;;;;;;;20.17;11.38;;;;;;;21.17;94.79;97649.88;5133659;27;20050;-75
2021/07/28 01:36:11;;;;;;;19.67;10.75;;;;;;;21.03;95.77;97634.97;5134132;27;20053;-75
2021/07/28 01:38:37;;;;;;;17.05;10.82;;;;;;;21.08;96.19;97632.63;5116378;27;20031;-75
2021/07/28 01:41:04;;;;;;;20.17;10.85;;;;;;;21.13;96.11;97638.50;5133772;27;20027;-75
2021/07/28 01:43:30;;;;;;;15.18;10.77;;;;;;;21.18;96.42;97635.28;5116578;27;20022;-74
2021/07/28 01:45:57;;;;;;;19.48;10.80;;;;;;;21.01;96.64;97626.94;5133957;27;20035;-75
2021/07/28 01:48:23;;;;;;;21.58;12.23;;;;;;;21.07;98.68;97645.34;5133130;27;20014;-75
2021/07/28 01:50:49;;;;;;;24.17;11.48;;;;;;;21.10;100.00;97635.22;5133556;27;20019;-75
2021/07/28 01:53:15;;;;;;;31.90;11.95;;;;;;;21.16;100.00;97649.06;5133117;27;20075;-75
2021/07/28 01:55:42;;;;;;;23.27;11.63;;;;;;;21.18;100.00;97651.59;5133466;27;20118;-75
2021/07/28 01:58:08;;;;;;;28.10;12.88;;;;;;;21.10;100.00;97638.81;5116330;27;20051;-75
2021/07/28 02:00:34;;;;;;;21.80;12.02;;;;;;;20.85;100.00;97623.25;5132526;27;20023;-76
2021/07/28 02:03:03;;;;;;;17.27;11.45;;;;;;;20.87;100.00;97638.41;5133314;27;20075;-74
2021/07/28 02:05:33;;;;;;;20.50;11.15;;;;;;;20.80;100.00;97637.31;5133346;27;20068;-74
2021/07/28 02:08:03;;;;;;;25.38;12.63;;;;;;;20.79;100.00;97641.06;5133316;27;20030;-75
2021/07/28 02:10:29;;;;;;;18.33;11.50;;;;;;;20.67;100.00;97636.88;5133256;27;20092;-75
2021/07/28 02:12:55;;;;;;;20.05;12.02;;;;;;;20.68;100.00;97635.84;5132853;27;20027;-74
2021/07/28 02:15:23;;;;;;;23.77;12.07;;;;;;;20.61;100.00;97629.31;5132831;27;20450;-75
2021/07/28 02:17:51;;;;;;;26.23;12.00;;;;;;;20.51;100.00;97620.41;5133873;27;20027;-74
2021/07/28 02:20:17;;;;;;;22.67;12.63;;;;;;;20.59;100.00;97641.34;5132746;27;20025;-75
2021/07/28 02:22:44;;;;;;;24.95;12.05;;;;;;;20.53;100.00;97648.25;5132874;27;20409;-75
2021/07/28 02:25:10;;;;;;;21.95;12.40;;;;;;;20.45;100.00;97637.31;5134178;27;20054;-75
2021/07/28 02:27:36;;;;;;;21.65;12.05;;;;;;;20.43;100.00;97625.72;5132255;27;20095;-75
2021/07/28 02:30:01;;;;;;;22.20;12.05;;;;;;;20.39;100.00;97629.78;5133021;27;20098;-75
2021/07/28 02:32:27;;;;;;;18.40;11.45;;;;;;;20.38;100.00;97633.50;5132614;27;20031;-76
2021/07/28 02:34:53;;;;;;;19.35;11.27;;;;;;;20.35;100.00;97642.81;5115392;27;20031;-75
2021/07/28 02:37:18;;;;;;;19.27;12.07;;;;;;;20.41;100.00;97644.06;5133596;27;20106;-75
2021/07/28 02:39:44;;;;;;;18.90;11.60;;;;;;;20.36;100.00;97622.81;5133707;27;20026;-75
2021/07/28 02:42:09;;;;;;;24.77;12.45;;;;;;;20.26;100.00;97618.44;5132273;27;20118;-75
2021/07/28 02:44:35;;;;;;;20.35;12.40;;;;;;;20.37;100.00;97639.94;5133738;27;20098;-75
2021/07/28 02:47:00;;;;;;;22.15;11.88;;;;;;;20.21;100.00;97626.16;5132120;27;20184;-75
2021/07/28 02:49:26;;;;;;;18.48;12.05;;;;;;;20.29;100.00;97640.72;5132205;27;20497;-75
2021/07/28 02:51:52;;;;;;;21.70;12.00;;;;;;;20.21;100.00;97615.28;5133580;27;20098;-75
2021/07/28 02:54:21;;;;;;;23.20;12.30;;;;;;;20.20;100.00;97622.59;5132328;27;20031;-75
2021/07/28 02:56:47;;;;;;;19.30;12.43;;;;;;;20.25;100.00;97628.41;5132092;27;20113;-75
2021/07/28 02:59:12;;;;;;;20.77;12.30;;;;;;;20.31;100.00;97643.25;5132612;27;20110;-75
2021/07/28 03:01:38;;;;;;;22.45;12.35;;;;;;;20.26;100.00;97638.31;5132700;27;20023;-75
2021/07/28 03:04:03;;;;;;;20.98;12.10;;;;;;;20.17;100.00;97633.75;5132264;27;20023;-75
2021/07/28 03:06:29;;;;;;;20.80;12.68;;;;;;;20.25;100.00;97644.69;5132393;27;20470;-75
2021/07/28 03:08:54;;;;;;;22.88;12.20;;;;;;;20.20;100.00;97633.44;5131861;27;20027;-75
2021/07/28 03:11:20;;;;;;;20.42;11.98;;;;;;;20.09;100.00;97620.06;5132206;27;20501;-75
2021/07/28 03:13:45;;;;;;;18.70;11.82;;;;;;;20.08;100.00;97622.94;5132102;27;20035;-75
2021/07/28 03:16:11;;;;;;;20.00;12.38;;;;;;;20.15;100.00;97632.19;5115004;27;20026;-75
2021/07/28 03:18:37;;;;;;;20.55;12.05;;;;;;;20.14;100.00;97644.94;5115004;27;20034;-75
2021/07/28 03:21:02;;;;;;;19.60;12.48;;;;;;;20.08;100.00;97640.09;5133468;27;20058;-76
2021/07/28 03:23:28;;;;;;;24.67;13.27;;;;;;;20.08;100.00;97631.94;5115091;27;20459;-75
2021/07/28 03:25:53;;;;;;;20.55;13.48;;;;;;;20.06;100.00;97635.84;5131768;27;20022;-75
2021/07/28 03:28:19;;;;;;;25.05;12.43;;;;;;;20.10;100.00;97637.22;5133207;27;20027;-76
2021/07/28 03:30:44;;;;;;;25.23;12.82;;;;;;;19.96;100.00;97619.59;5133230;27;20026;-76
2021/07/28 03:33:10;;;;;;;26.17;13.60;;;;;;;20.12;100.00;97637.94;5131436;27;20023;-76
2021/07/28 03:35:35;;;;;;;25.55;12.60;;;;;;;20.19;100.00;97642.59;5130280;27;20406;-75
2021/07/28 03:38:01;;;;;;;23.23;12.50;;;;;;;20.30;100.00;97649.72;5132413;27;20080;-76
2021/07/28 03:40:26;;;;;;;29.00;13.80;;;;;;;20.43;100.00;97656.47;5133071;27;20030;-76
2021/07/28 03:42:52;;;;;;;24.75;13.80;;;;;;;20.42;100.00;97648.50;5114303;27;20062;-76
2021/07/28 03:45:18;;;;;;;18.63;13.88;;;;;;;20.51;100.00;97647.56;5133070;27;20045;-75
2021/07/28 03:47:43;;;;;;;36.83;13.32;;;;;;;20.48;100.00;97640.59;5131165;27;20080;-75
2021/07/28 03:50:09;;;;;;;21.92;12.63;;;;;;;20.57;100.00;97636.09;5132746;27;20038;-75
2021/07/28 03:52:35;;;;;;;17.77;13.02;;;;;;;20.67;99.45;97642.31;5131136;27;20064;-76
2021/07/28 03:55:01;;;;;;;24.33;12.45;;;;;;;20.58;99.97;97613.31;5131135;27;20035;-75
2021/07/28 03:57:26;;;;;;;23.10;13.45;;;;;;;20.77;99.94;97639.47;5110114;27;20075;-75
2021/07/28 03:59:52;;;;;;;20.40;12.25;;;;;;;20.78;99.85;97633.03;5131027;27;20148;-78
2021/07/28 04:02:17;;;;;;;21.83;12.48;;;;;;;20.80;98.32;97640.03;5105874;28;20482;-78
2021/07/28 04:04:43;;;;;;;23.45;12.02;;;;;;;20.81;97.86;97621.84;5147165;27;20033;-77
2021/07/28 04:07:08;;;;;;;23.00;12.85;;;;;;;20.91;97.50;97634.38;5131300;27;20034;-77
2021/07/28 04:09:34;;;;;;;30.40;12.60;;;;;;;20.96;97.22;97639.31;5114168;27;20023;-78
2021/07/28 04:11:59;;;;;;;38.58;13.13;;;;;;;21.02;96.75;97631.38;5130983;27;20057;-78
2021/07/28 04:14:25;;;;;;;33.88;14.20;;;;;;;21.12;96.33;97630.47;5130740;27;20054;-78
2021/07/28 04:16:51;;;;;;;46.60;13.95;;;;;;;21.16;95.51;97610.97;5130788;27;20110;-80
2021/07/28 04:19:16;;;;;;;31.88;13.40;;;;;;;21.37;94.34;97637.81;5130375;27;20113;-78
2021/07/28 04:21:42;;;;;;;30.23;13.15;;;;;;;21.38;94.56;97620.47;5131132;28;20011;-79
2021/07/28 04:24:07;;;;;;;29.17;12.98;;;;;;;21.45;93.69;97621.50;5130531;27;20094;-78
2021/07/28 04:26:33;;;;;;;36.38;12.43;;;;;;;21.59;92.11;97620.94;5114015;28;20027;-78
2021/07/28 04:28:58;;;;;;;22.48;12.55;;;;;;;21.72;92.09;97639.56;5131061;28;20027;-78
2021/07/28 04:31:24;;;;;;;22.85;12.00;;;;;;;21.80;91.15;97632.28;5114071;28;20026;-78
2021/07/28 04:33:49;;;;;;;27.13;13.68;;;;;;;22.04;89.84;97640.59;5114113;28;20027;-76
2021/07/28 04:36:15;;;;;;;25.02;12.18;;;;;;;22.90;85.26;97660.25;5130596;28;20038;-77
2021/07/28 04:38:40;;;;;;;27.67;12.30;;;;;;;23.63;79.77;97649.31;5130574;28;20091;-77
2021/07/28 04:41:06;;;;;;;21.95;11.77;;;;;;;24.17;76.47;97648.53;5113226;28;20125;-77
2021/07/28 04:43:31;;;;;;;30.30;12.40;;;;;;;23.99;75.53;97612.34;5130549;28;20061;-77
2021/07/28 04:45:58;;;;;;;31.40;12.88;;;;;;;23.92;77.03;97651.47;5113225;28;20106;-79
2021/07/28 04:48:25;;;;;;;27.25;12.98;;;;;;;23.63;78.99;97641.13;5130705;28;20023;-77
2021/07/28 04:50:51;;;;;;;34.35;12.95;;;;;;;23.67;79.75;97650.69;5113197;28;20012;-76
2021/07/28 04:53:16;;;;;;;32.42;13.00;;;;;;;23.60;79.69;97636.00;5131581;27;20023;-78
2021/07/28 04:55:42;;;;;;;25.30;12.40;;;;;;;23.51;79.69;97624.25;5131817;27;20030;-77
2021/07/28 04:58:07;;;;;;;38.47;12.63;;;;;;;23.31;79.92;97609.25;5131728;27;20019;-77
2021/07/28 05:00:33;;;;;;;26.10;12.50;;;;;;;23.58;79.26;97618.97;5113838;28;20019;-77
2021/07/28 05:02:59;;;;;;;37.80;13.10;;;;;;;23.83;79.13;97642.47;5130740;28;20015;-77
2021/07/28 05:05:25;;;;;;;28.52;12.85;;;;;;;23.78;79.60;97646.75;5131740;27;20027;-78
2021/07/28 05:07:50;;;;;;;34.03;12.93;;;;;;;23.74;80.22;97638.06;5130571;27;20542;-78
2021/07/28 05:10:16;;;;;;;38.03;14.35;;;;;;;23.72;79.97;97642.81;5129983;28;20027;-77
2021/07/28 05:12:42;;;;;;;36.42;14.68;;;;;;;24.10;78.77;97643.91;5113300;28;20047;-79
2021/07/28 05:15:08;;;;;;;30.67;13.68;;;;;;;24.02;78.76;97633.84;5130018;27;20051;-78
2021/07/28 05:17:33;;;;;;;27.17;13.75;;;;;;;24.23;78.20;97650.53;5113442;28;20106;-77
2021/07/28 05:19:59;;;;;;;28.02;14.57;;;;;;;24.50;77.47;97657.41;5130461;28;20061;-77
2021/07/28 05:22:24;;;;;;;30.48;15.93;;;;;;;23.91;78.94;97612.34;5131667;27;20019;-76
2021/07/28 05:24:52;;;;;;;46.47;16.00;;;;;;;24.26;78.06;97627.47;5130532;28;20027;-76
2021/07/28 05:27:17;;;;;;;326.38;27.65;;;;;;;25.42;73.70;97659.16;5130157;27;20490;-76
2021/07/28 05:29:43;;;;;;;55.90;16.17;;;;;;;26.36;68.59;97636.59;5131388;27;20019;-77
2021/07/28 05:32:09;;;;;;;52.75;16.70;;;;;;;28.22;60.28;97633.50;5112842;28;20023;-76
2021/07/28 05:34:34;;;;;;;367.42;26.55;;;;;;;29.79;55.20;97649.59;5130340;27;20379;-76
2021/07/28 05:37:00;;;;;;;42.03;13.38;;;;;;;30.81;50.75;97663.59;5133890;27;20019;-77
2021/07/28 05:39:25;;;;;;;34.88;14.32;;;;;;;31.71;48.08;97663.28;5116724;27;20428;-77
2021/07/28 05:41:51;;;;;;;43.97;12.98;;;;;;;33.02;45.19;97652.72;5133971;27;20035;-76
2021/07/28 05:44:16;;;;;;;77.65;13.32;;;;;;;34.35;41.89;97678.16;5133544;27;20031;-76
2021/07/28 05:46:42;;;;;;;111.90;17.55;;;;;;;35.34;39.99;97672.28;5133540;27;20027;-76
2021/07/28 05:49:07;;;;;;;61.63;13.25;;;;;;;35.89;38.14;97672.47;5133543;27;20031;-76
2021/07/28 05:51:33;;;;;;;116.90;16.27;;;;;;;36.42;37.12;97666.38;5133628;27;20054;-76
2021/07/28 05:53:58;;;;;;;273.27;25.02;;;;;;;36.76;36.46;97683.91;5134883;27;20108;-76
2021/07/28 05:56:24;;;;;;;277.00;25.40;;;;;;;36.46;36.90;97681.47;5116065;27;20542;-76
2021/07/28 05:58:49;;;;;;;87.57;19.33;;;;;;;37.22;35.32;97660.22;5134771;27;20023;-75
2021/07/28 06:01:17;;;;;;;315.42;33.38;;;;;;;38.09;33.94;97672.00;5133112;27;20478;-75
2021/07/28 06:03:43;;;;;;;45.30;12.88;;;;;;;38.24;33.47;97674.09;5116103;27;20027;-76
2021/07/28 06:06:08;;;;;;;142.60;18.13;;;;;;;38.21;32.70;97663.47;5133284;27;20459;-76
2021/07/28 06:08:34;;;;;;;141.18;70.65;;;;;;;38.52;32.50;97670.13;5133218;27;20518;-76
2021/07/28 06:10:59;;;;;;;40.83;11.07;;;;;;;39.11;31.34;97659.50;5133272;27;20095;-76
2021/07/28 06:13:25;;;;;;;144.82;15.80;;;;;;;39.10;31.16;97669.03;5134104;27;20139;-76
2021/07/28 06:15:51;;;;;;;54.63;13.20;;;;;;;39.87;30.40;97644.59;5133355;27;20080;-75
2021/07/28 06:18:16;;;;;;;50.60;11.20;;;;;;;39.84;30.06;97656.34;5133062;27;20037;-78
2021/07/28 06:20:42;;;;;;;94.78;14.40;;;;;;;39.62;30.57;97664.19;5134316;27;20027;-77
2021/07/28 06:23:07;;;;;;;280.85;23.27;;;;;;;40.16;30.15;97658.06;5133062;27;20482;-76
2021/07/28 06:25:33;;;;;;;151.05;17.00;;;;;;;40.98;29.51;97666.91;5132828;27;20458;-75
2021/07/28 06:27:58;;;;;;;23.63;10.70;;;;;;;40.47;29.78;97662.53;5133194;27;20029;-75
2021/07/28 06:30:24;;;;;;;44.47;13.23;;;;;;;40.70;29.71;97663.91;5133977;27;20482;-76
2021/07/28 06:32:49;;;;;;;62.00;13.85;;;;;;;40.78;29.21;97666.97;5132930;27;20034;-76
2021/07/28 06:35:15;;;;;;;39.83;11.52;;;;;;;41.17;28.75;97664.31;5132741;27;20035;-77
2021/07/28 06:37:41;;;;;;;23.88;11.35;;;;;;;41.17;28.05;97653.06;5132783;27;20031;-77
2021/07/28 06:40:07;;;;;;;121.38;16.48;;;;;;;41.35;26.98;97660.06;5132640;27;20033;-75
2021/07/28 06:42:33;;;;;;;393.30;27.45;;;;;;;40.25;28.83;97665.63;5115193;27;20501;-76
2021/07/28 06:44:58;;;;;;;450.42;28.52;;;;;;;40.52;28.70;97645.69;5132673;27;20031;-76
2021/07/28 06:47:24;;;;;;;294.10;25.67;;;;;;;41.19;28.07;97658.41;5132176;27;20027;-76
2021/07/28 06:49:49;;;;;;;105.35;16.55;;;;;;;40.71;27.90;97646.78;5132402;27;20029;-75
2021/07/28 06:52:15;;;;;;;132.82;16.00;;;;;;;40.87;27.92;97653.19;5132444;27;20062;-75
2021/07/28 06:54:40;;;;;;;25.75;10.68;;;;;;;40.92;27.46;97639.94;5132322;27;20110;-75
2021/07/28 06:57:06;;;;;;;28.63;10.60;;;;;;;39.64;28.57;97638.66;5132519;27;20027;-76
2021/07/28 06:59:31;;;;;;;21.58;10.50;;;;;;;39.94;28.95;97647.97;5115002;27;20126;-76
2021/07/28 07:01:57;;;;;;;26.65;9.80;;;;;;;41.09;27.08;97634.03;5132643;27;20062;-75
2021/07/28 07:04:22;;;;;;;31.67;10.35;;;;;;;42.24;25.95;97628.75;5132294;27;20031;-77
2021/07/28 07:06:48;;;;;;;14.65;8.55;;;;;;;42.03;25.89;97633.69;5132145;27;20023;-76
2021/07/28 07:09:13;;;;;;;31.90;9.77;;;;;;;41.18;27.27;97635.09;5133379;27;20112;-76
2021/07/28 07:11:39;;;;;;;25.48;9.77;;;;;;;41.61;27.12;97625.03;5133264;27;20109;-76
2021/07/28 07:14:04;;;;;;;21.92;10.63;;;;;;;41.40;27.73;97629.09;5133107;27;20066;-76
2021/07/28 07:16:30;;;;;;;26.85;12.00;;;;;;;41.77;27.25;97629.44;5132953;27;20136;-74
2021/07/28 07:18:55;;;;;;;21.05;10.80;;;;;;;41.81;27.01;97636.13;5131867;27;20031;-75
2021/07/28 07:21:21;;;;;;;34.35;10.27;;;;;;;43.02;25.87;97640.59;5131561;27;20035;-76
2021/07/28 07:23:46;;;;;;;59.53;13.98;;;;;;;42.08;26.82;97636.50;5131855;27;20440;-75
2021/07/28 07:26:12;;;;;;;343.52;26.73;;;;;;;41.92;27.25;97620.88;5131742;27;20049;-76
2021/07/28 07:28:37;;;;;;;220.60;19.98;;;;;;;42.81;26.33;97610.97;5132845;27;20060;-75
2021/07/28 07:31:08;;;;;;;51.63;12.18;;;;;;;43.47;24.97;97621.41;5131904;27;20027;-75
2021/07/28 07:33:40;;;;;;;34.60;11.17;;;;;;;44.05;24.45;97614.28;5131915;27;20019;-76
2021/07/28 07:36:11;;;;;;;83.20;13.65;;;;;;;44.13;24.49;97616.38;5115408;27;20038;-75
2021/07/28 07:38:37;;;;;;;27.00;9.65;;;;;;;43.79;24.72;97620.66;5131574;27;20500;-75
2021/07/28 07:41:06;;;;;;;34.65;10.02;;;;;;;43.16;25.28;97607.72;5114509;27;20131;-75
2021/07/28 07:43:31;;;;;;;39.53;10.65;;;;;;;43.83;24.05;97597.19;5131494;27;20034;-75
2021/07/28 07:45:57;;;;;;;853.38;63.40;;;;;;;43.29;25.13;97617.41;5114486;27;20031;-75
2021/07/28 07:48:23;;;;;;;191.55;15.18;;;;;;;43.29;25.41;97611.75;5132484;27;20023;-75
2021/07/28 07:50:49;;;;;;;150.25;15.30;;;;;;;43.91;24.37;97613.38;5131417;27;20019;-75
2021/07/28 07:53:15;;;;;;;51.78;11.00;;;;;;;44.39;23.69;97607.50;5131322;27;20084;-75
2021/07/28 07:55:40;;;;;;;141.07;13.40;;;;;;;45.05;22.22;97605.03;5132561;27;20049;-75
2021/07/28 07:58:06;;;;;;;484.70;30.17;;;;;;;45.53;22.27;97615.88;5131020;27;20501;-76
2021/07/28 08:00:31;;;;;;;111.88;13.57;;;;;;;44.99;23.01;97606.31;5131884;27;20031;-76
2021/07/28 08:02:57;;;;;;;1753.72;110.18;;;;;;;44.96;22.98;97600.44;5131271;27;20038;-76
2021/07/28 08:05:22;;;;;;;70.65;11.75;;;;;;;44.57;23.49;97603.78;5132439;27;20029;-76
2021/07/28 08:07:48;;;;;;;1202.95;80.15;;;;;;;44.40;23.42;97595.03;5130926;27;20042;-76
2021/07/28 08:10:14;;;;;;;266.83;20.65;;;;;;;43.94;23.86;97589.38;5132617;27;20110;-78
2021/07/28 08:12:39;;;;;;;109.88;12.98;;;;;;;44.58;23.46;97583.69;5113805;28;20060;-76
2021/07/28 08:15:05;;;;;;;122.97;13.05;;;;;;;45.20;23.24;97589.72;5131080;27;20042;-76
2021/07/28 08:17:31;;;;;;;75.32;11.15;;;;;;;44.66;23.11;97582.97;5130824;27;20031;-77
2021/07/28 08:19:57;;;;;;;39.28;9.02;;;;;;;44.09;23.73;97573.00;5130989;27;20038;-76
2021/07/28 08:22:23;;;;;;;30.17;9.00;;;;;;;43.95;24.47;97596.69;5131025;28;20027;-76
2021/07/28 08:24:48;;;;;;;63.75;14.43;;;;;;;44.65;23.47;97574.81;5132399;27;20038;-76
2021/07/28 08:27:14;;;;;;;32.88;10.10;;;;;;;45.47;22.96;97584.03;5132039;27;20035;-76
2021/07/28 08:29:39;;;;;;;127.28;16.88;;;;;;;44.96;23.15;97573.03;5130774;28;20106;-76
2021/07/28 08:32:05;;;;;;;82.82;14.00;;;;;;;45.94;22.09;97565.63;5130946;28;20019;-76
2021/07/28 08:34:31;;;;;;;22.50;8.80;;;;;;;47.03;20.34;97575.38;5113730;28;20023;-77
2021/07/28 08:36:56;;;;;;;299.83;22.98;;;;;;;46.80;20.81;97566.13;5130547;28;20406;-77
2021/07/28 08:39:21;;;;;;;213.20;22.90;;;;;;;46.90;20.50;97565.84;5132020;27;20027;-76
2021/07/28 08:41:48;;;;;;;60.22;10.30;;;;;;;47.56;20.67;97572.34;5130675;27;20439;-76
2021/07/28 08:44:21;;;;;;;52.15;10.68;;;;;;;48.44;19.23;97555.69;5131926;27;20023;-76
2021/07/28 08:46:49;;;;;;;75.70;12.27;;;;;;;48.68;19.58;97570.16;5130434;27;20027;-76
2021/07/28 08:49:15;;;;;;;397.50;28.67;;;;;;;48.08;19.59;97558.97;5130765;28;20035;-77
2021/07/28 08:51:44;;;;;;;448.70;25.50;;;;;;;48.13;19.25;97561.59;5130272;27;20031;-77
2021/07/28 08:54:10;;;;;;;34.70;10.35;;;;;;;48.36;19.04;97561.06;5130672;28;20053;-77
2021/07/28 08:56:40;;;;;;;27.88;9.77;;;;;;;48.63;18.84;97550.47;5130575;28;20114;-77
2021/07/28 08:59:06;;;;;;;23.10;9.20;;;;;;;49.09;17.11;97533.34;5130755;28;20034;-77
2021/07/28 09:01:31;;;;;;;22.40;9.48;;;;;;;49.25;17.61;97547.78;5130733;28;20023;-77
2021/07/28 09:03:57;;;;;;;43.25;10.60;;;;;;;49.03;18.20;97539.56;5131433;27;20443;-77
2021/07/28 09:06:29;;;;;;;14.90;8.35;;;;;;;47.89;18.59;97536.63;5130600;28;20027;-77
2021/07/28 09:08:59;;;;;;;52.35;26.48;;;;;;;46.39;19.67;97537.28;5130032;28;20019;-77
2021/07/28 09:11:25;;;;;;;26.13;8.77;;;;;;;46.89;19.10;97538.66;5133308;27;20030;-76
2021/07/28 09:13:53;;;;;;;29.42;8.85;;;;;;;47.67;18.80;97545.28;5133996;27;20410;-76
2021/07/28 09:16:19;;;;;;;21.08;8.23;;;;;;;47.20;18.65;97522.41;5134607;27;20027;-76
2021/07/28 09:18:51;;;;;;;26.15;8.82;;;;;;;47.91;18.61;97542.78;5135456;27;20402;-77
2021/07/28 09:21:20;;;;;;;22.85;8.63;;;;;;;48.51;18.03;97536.13;5117000;27;20039;-76
2021/07/28 09:23:51;;;;;;;30.70;8.82;;;;;;;49.04;17.65;97519.31;5134110;27;20035;-77
2021/07/28 09:26:31;;;;;;;26.83;8.55;;;;;;;49.71;17.42;97535.41;5134141;27;20023;-76
2021/07/28 09:29:06;;;;;;;20.77;8.07;;;;;;;48.72;16.15;97520.84;5135240;27;20027;-76
2021/07/28 09:31:55;;;;;;;16.20;7.47;;;;;;;48.57;16.60;97512.03;5135424;27;20058;-76
2021/07/28 09:34:21;;;;;;;18.98;7.85;;;;;;;48.61;16.44;97513.06;5134228;27;20102;-76
2021/07/28 09:36:49;;;;;;;20.38;8.45;;;;;;;46.28;18.28;97506.41;5134044;27;20083;-77
2021/07/28 09:39:29;;;;;;;37.25;8.18;;;;;;;47.53;17.89;97511.44;5133849;27;20074;-76
2021/07/28 09:41:57;;;;;;;33.50;8.88;;;;;;;49.09;16.24;97504.06;5134965;27;20033;-76
2021/07/28 09:44:30;;;;;;;16.92;7.75;;;;;;;50.06;15.51;97505.41;5134026;27;20065;-77
2021/07/28 09:47:08;;;;;;;43.03;8.73;;;;;;;50.29;15.34;97511.50;5134681;27;20019;-76
2021/07/28 09:49:35;;;;;;;19.02;8.32;;;;;;;50.29;15.68;97506.66;5133734;27;20034;-76
2021/07/28 09:52:29;;;;;;;19.80;8.23;;;;;;;50.34;15.06;97503.59;5133351;27;20026;-76
2021/07/28 09:54:59;;;;;;;54.97;8.55;;;;;;;49.77;15.50;97491.31;5133352;27;20023;-76
2021/07/28 09:57:26;;;;;;;18.70;7.82;;;;;;;50.23;15.51;97496.69;5133438;27;20019;-76
2021/07/28 10:00:05;;;;;;;15.18;7.53;;;;;;;49.95;15.13;97489.94;5133114;27;20050;-76
2021/07/28 10:02:33;;;;;;;19.00;7.93;;;;;;;49.64;15.86;97483.91;5133283;27;20023;-76
2021/07/28 10:05:00;;;;;;;75.32;10.35;;;;;;;49.76;15.04;97490.47;5132970;27;20087;-76
2021/07/28 10:07:26;;;;;;;223.20;17.05;;;;;;;49.95;15.27;97472.84;5133211;27;20023;-75
2021/07/28 10:10:09;;;;;;;123.70;11.20;;;;;;;49.45;15.81;97489.22;5115907;27;20038;-76
2021/07/28 10:12:36;;;;;;;31.25;8.50;;;;;;;50.31;14.56;97472.13;5133437;27;20111;-76
2021/07/28 10:15:03;;;;;;;86.32;12.70;;;;;;;51.11;14.18;97476.03;5132850;27;20087;-76
2021/07/28 10:17:29;;;;;;;80.80;10.48;;;;;;;51.53;14.31;97476.53;5133167;27;20030;-76
2021/07/28 10:19:55;;;;;;;110.47;13.63;;;;;;;50.84;15.03;97465.38;5132902;27;20027;-77
2021/07/28 10:22:21;;;;;;;120.68;13.60;;;;;;;51.10;14.90;97480.09;5132334;27;20027;-75
2021/07/28 10:24:48;;;;;;;199.52;17.23;;;;;;;52.05;13.71;97475.59;5132794;27;20034;-76
2021/07/28 10:27:17;;;;;;;160.20;16.30;;;;;;;51.43;14.61;97463.63;5132649;27;20018;-76
2021/07/28 10:29:43;;;;;;;38.00;9.05;;;;;;;52.60;13.33;97464.03;5134191;27;20037;-76
2021/07/28 10:32:08;;;;;;;19.73;8.27;;;;;;;52.56;13.40;97470.84;5132363;27;20113;-76
2021/07/28 10:34:37;;;;;;;199.15;15.93;;;;;;;52.20;13.66;97467.06;5133976;27;20110;-76
2021/07/28 10:37:09;;;;;;;32.63;8.73;;;;;;;52.82;12.98;97459.69;5132510;27;20402;-76
2021/07/28 10:39:51;;;;;;;119.93;13.90;;;;;;;53.23;12.66;97459.00;5132909;27;20082;-76
2021/07/28 10:42:39;;;;;;;93.22;13.63;;;;;;;52.95;13.04;97452.59;5132721;27;20023;-76
2021/07/28 10:45:07;;;;;;;203.18;18.98;;;;;;;52.94;13.05;97448.09;5133331;27;20140;-76
2021/07/28 10:47:33;;;;;;;342.48;25.13;;;;;;;52.73;13.66;97441.91;5115082;27;20057;-76
2021/07/28 10:49:59;;;;;;;52.42;9.25;;;;;;;51.97;13.94;97443.13;5133452;27;20027;-76
2021/07/28 10:52:39;;;;;;;76.15;10.38;;;;;;;49.32;15.40;97426.59;5132483;27;20412;-75
2021/07/28 10:55:05;;;;;;;46.60;8.52;;;;;;;50.19;14.84;97432.22;5114966;27;20022;-76
2021/07/28 10:57:34;;;;;;;47.35;20.45;;;;;;;51.00;14.25;97429.25;5133469;27;20056;-75
2021/07/28 11:00:07;;;;;;;52.47;9.45;;;;;;;50.79;14.08;97418.00;5133306;27;20069;-76
2021/07/28 11:02:51;;;;;;;22.65;8.85;;;;;;;51.65;14.06;97444.28;5132119;27;20015;-76
2021/07/28 11:05:24;;;;;;;33.63;8.38;;;;;;;50.91;14.06;97432.22;5133257;27;20068;-75
2021/07/28 11:08:02;;;;;;;19.70;7.10;;;;;;;48.41;15.40;97428.56;5132224;27;20447;-75
2021/07/28 11:10:31;;;;;;;66.20;9.90;;;;;;;47.11;16.94;97421.47;5133181;27;20031;-76
2021/07/28 11:12:58;;;;;;;44.65;9.23;;;;;;;48.81;15.71;97432.66;5133350;27;20066;-76
2021/07/28 11:15:23;;;;;;;23.55;7.38;;;;;;;49.94;15.17;97431.31;5131749;27;20440;-75
2021/07/28 11:17:53;;;;;;;20.88;8.10;;;;;;;50.34;15.14;97423.81;5131915;27;20027;-76